createdAt,value
2023-02-23T00:01:52.244Z,13.85
2023-02-23T00:04:18.962Z,13.38
2023-02-23T00:06:45.698Z,14.27
2023-02-23T00:09:16.822Z,13.40
2023-02-23T00:11:43.366Z,12.63
2023-02-23T00:14:09.848Z,13.52
2023-02-23T00:16:37.595Z,16.67
2023-02-23T00:19:07.945Z,16.10
2023-02-23T00:21:35.327Z,14.43
2023-02-23T00:24:08.898Z,15.90
2023-02-23T00:26:37.542Z,12.43
2023-02-23T00:29:11.139Z,12.13
2023-02-23T00:31:38.740Z,13.25
2023-02-23T00:34:06.163Z,13.38
2023-02-23T00:36:34.643Z,14.25
2023-02-23T00:39:18.181Z,15.27
2023-02-23T00:41:46.531Z,14.40
2023-02-23T00:44:15.397Z,13.95
2023-02-23T00:46:43.679Z,14.50
2023-02-23T00:49:12.463Z,14.98
2023-02-23T00:51:39.447Z,15.52
2023-02-23T00:54:06.992Z,14.13
2023-02-23T00:56:34.163Z,14.45
2023-02-23T00:59:00.665Z,14.45
2023-02-23T01:01:27.562Z,14.70
2023-02-23T01:03:54.220Z,14.60
2023-02-23T01:06:21.301Z,13.93
2023-02-23T01:08:49.835Z,15.52
2023-02-23T01:11:21.202Z,16.25
2023-02-23T01:13:49.308Z,15.57
2023-02-23T01:16:19.256Z,15.27
2023-02-23T01:18:46.673Z,16.00
2023-02-23T01:21:22.914Z,14.90
2023-02-23T01:23:50.928Z,15.23
2023-02-23T01:26:22.657Z,15.05
2023-02-23T01:28:54.069Z,15.93
2023-02-23T01:31:21.945Z,15.05
2023-02-23T01:33:52.886Z,16.67
2023-02-23T01:36:19.479Z,16.83
2023-02-23T01:38:46.056Z,17.00
2023-02-23T01:41:13.190Z,14.90
2023-02-23T01:44:03.636Z,15.18
2023-02-23T01:46:39.290Z,15.38
2023-02-23T01:49:10.677Z,15.25
2023-02-23T01:51:49.289Z,15.48
2023-02-23T01:54:24.221Z,13.73
2023-02-23T01:56:58.348Z,16.80
2023-02-23T01:59:34.329Z,16.75
2023-02-23T02:02:01.058Z,17.40
2023-02-23T02:04:28.983Z,16.55
2023-02-23T02:06:56.891Z,17.58
2023-02-23T02:09:27.943Z,16.08
2023-02-23T02:11:54.436Z,17.88
2023-02-23T02:14:30.896Z,14.98
2023-02-23T02:17:37.430Z,15.23
2023-02-23T02:20:33.509Z,15.10
2023-02-23T02:23:41.356Z,13.15
2023-02-23T02:26:21.805Z,15.38
2023-02-23T02:29:31.590Z,14.68
2023-02-23T02:32:18.142Z,15.65
2023-02-23T02:35:10.918Z,13.85
2023-02-23T02:37:47.752Z,14.20
2023-02-23T02:40:25.180Z,15.20
2023-02-23T02:43:12.551Z,16.25
2023-02-23T02:45:51.741Z,16.83
2023-02-23T02:48:45.518Z,16.15
2023-02-23T02:51:28.490Z,16.77
2023-02-23T02:54:07.315Z,16.17
2023-02-23T02:56:40.637Z,15.60
2023-02-23T02:59:37.464Z,15.57
2023-02-23T03:02:26.058Z,16.67
2023-02-23T03:05:11.134Z,14.80
2023-02-23T03:08:07.351Z,17.00
2023-02-23T03:11:05.596Z,14.77
2023-02-23T03:14:24.166Z,16.55
2023-02-23T03:17:12.232Z,16.33
2023-02-23T03:20:17.697Z,17.35
2023-02-23T03:23:28.220Z,16.70
2023-02-23T03:26:23.313Z,17.92
2023-02-23T03:29:20.289Z,16.45
2023-02-23T03:32:12.215Z,17.05
2023-02-23T03:35:10.177Z,17.77
2023-02-23T03:38:09.133Z,16.40
2023-02-23T03:40:57.564Z,16.67
2023-02-23T03:43:50.044Z,18.13
2023-02-23T03:46:37.175Z,17.33
2023-02-23T03:49:26.989Z,17.15
2023-02-23T03:52:18.111Z,18.55
2023-02-23T03:55:08.627Z,19.20
2023-02-23T03:57:56.735Z,17.45
2023-02-23T04:00:48.826Z,18.00
2023-02-23T04:03:37.506Z,18.60
2023-02-23T04:06:27.242Z,19.52
2023-02-23T04:09:16.908Z,17.27
2023-02-23T04:12:10.991Z,17.35
2023-02-23T04:14:48.750Z,16.98
2023-02-23T04:17:16.679Z,18.60
2023-02-23T04:19:53.557Z,18.90
2023-02-23T04:22:20.928Z,18.20
2023-02-23T04:24:48.599Z,16.02
2023-02-23T04:27:15.813Z,16.67
2023-02-23T04:29:42.502Z,18.20
2023-02-23T04:32:18.439Z,18.10
2023-02-23T04:34:45.435Z,18.90
2023-02-23T04:37:13.053Z,18.63
2023-02-23T04:39:39.713Z,19.85
2023-02-23T04:42:06.257Z,20.05
2023-02-23T04:44:32.846Z,19.70
2023-02-23T04:46:59.333Z,20.70
2023-02-23T04:49:25.876Z,19.90
2023-02-23T04:51:52.443Z,19.23
2023-02-23T04:54:18.940Z,19.33
2023-02-23T04:56:45.419Z,17.50
2023-02-23T04:59:11.913Z,19.38
2023-02-23T05:01:38.669Z,20.05
2023-02-23T05:04:05.278Z,19.88
2023-02-23T05:06:33.191Z,14.73
2023-02-23T05:08:59.738Z,19.90
2023-02-23T05:11:27.861Z,21.48
2023-02-23T05:13:54.690Z,19.95
2023-02-23T05:16:21.625Z,19.55
2023-02-23T05:18:48.398Z,18.23
2023-02-23T05:21:14.892Z,19.35
2023-02-23T05:23:41.423Z,19.60
2023-02-23T05:26:11.055Z,18.90
2023-02-23T05:28:40.225Z,20.38
2023-02-23T05:31:07.022Z,20.60
2023-02-23T05:33:35.163Z,20.30
2023-02-23T05:36:05.364Z,19.80
2023-02-23T05:38:31.890Z,19.92
2023-02-23T05:40:58.385Z,20.10
2023-02-23T05:43:24.965Z,19.95
2023-02-23T05:45:51.460Z,18.98
2023-02-23T05:48:17.984Z,21.17
2023-02-23T05:50:44.467Z,20.10
2023-02-23T05:53:11.354Z,20.50
2023-02-23T05:55:37.829Z,20.40
2023-02-23T05:58:04.314Z,17.38
2023-02-23T06:00:30.884Z,20.77
2023-02-23T06:02:57.381Z,17.08
2023-02-23T06:05:23.866Z,18.55
2023-02-23T06:07:50.448Z,20.38
2023-02-23T06:10:17.357Z,21.15
2023-02-23T06:12:44.839Z,20.55
2023-02-23T06:15:11.588Z,21.17
2023-02-23T06:17:38.081Z,22.60
2023-02-23T06:20:07.179Z,22.13
2023-02-23T06:22:33.753Z,23.48
2023-02-23T06:25:00.289Z,21.77
2023-02-23T06:27:26.846Z,21.98
2023-02-23T06:29:53.832Z,23.98
2023-02-23T06:32:20.376Z,23.88
2023-02-23T06:34:46.885Z,22.50
2023-02-23T06:37:16.103Z,22.13
2023-02-23T06:39:42.629Z,22.38
2023-02-23T06:42:09.146Z,22.05
2023-02-23T06:44:35.806Z,23.30
2023-02-23T06:47:05.809Z,22.15
2023-02-23T06:49:32.493Z,22.65
2023-02-23T06:51:58.989Z,22.20
2023-02-23T06:54:26.543Z,22.25
2023-02-23T06:56:53.343Z,21.67
2023-02-23T06:59:19.949Z,22.52
2023-02-23T07:01:46.485Z,22.60
2023-02-23T07:04:15.545Z,25.65
2023-02-23T07:06:43.202Z,22.80
2023-02-23T07:09:09.828Z,23.00
2023-02-23T07:11:36.324Z,21.40
2023-02-23T07:14:02.840Z,19.73
2023-02-23T07:16:29.647Z,24.88
2023-02-23T07:18:56.434Z,23.38
2023-02-23T07:21:23.024Z,21.00
2023-02-23T07:23:50.134Z,24.25
2023-02-23T07:26:18.489Z,21.88
2023-02-23T07:28:45.026Z,22.25
2023-02-23T07:31:11.667Z,23.02
2023-02-23T07:33:38.319Z,20.25
2023-02-23T07:36:05.167Z,19.25
2023-02-23T07:38:31.646Z,12.55
2023-02-23T07:40:58.202Z,19.02
2023-02-23T07:43:24.770Z,18.98
2023-02-23T07:45:51.782Z,13.57
2023-02-23T07:48:19.204Z,17.60
2023-02-23T07:50:45.734Z,18.42
2023-02-23T07:53:12.766Z,18.02
2023-02-23T07:55:40.273Z,19.10
2023-02-23T07:58:07.976Z,16.05
2023-02-23T08:00:36.637Z,16.48
2023-02-23T08:03:03.223Z,17.63
2023-02-23T08:05:29.766Z,16.33
2023-02-23T08:07:57.976Z,18.73
2023-02-23T08:10:25.128Z,18.08
2023-02-23T08:12:51.638Z,14.02
2023-02-23T08:15:18.262Z,19.50
2023-02-23T08:17:44.905Z,14.60
2023-02-23T08:20:11.580Z,15.20
2023-02-23T08:22:48.766Z,16.08
2023-02-23T08:25:15.720Z,18.75
2023-02-23T08:27:42.499Z,15.35
2023-02-23T08:30:09.987Z,15.30
2023-02-23T08:32:36.563Z,16.17
2023-02-23T08:35:03.538Z,18.35
2023-02-23T08:37:30.227Z,15.05
2023-02-23T08:39:57.305Z,17.92
2023-02-23T08:42:23.786Z,18.55
2023-02-23T08:44:50.286Z,14.35
2023-02-23T08:47:21.937Z,15.48
2023-02-23T08:49:48.876Z,15.90
2023-02-23T08:52:15.643Z,18.92
2023-02-23T08:54:42.262Z,17.88
2023-02-23T08:57:10.254Z,16.63
2023-02-23T08:59:39.220Z,17.10
2023-02-23T09:02:07.613Z,15.50
2023-02-23T09:04:38.030Z,16.17
2023-02-23T09:07:05.042Z,16.10
2023-02-23T09:09:32.622Z,13.15
2023-02-23T09:12:00.072Z,18.38
2023-02-23T09:14:28.047Z,17.52
2023-02-23T09:16:54.518Z,16.92
2023-02-23T09:19:21.001Z,13.85
2023-02-23T09:21:47.481Z,17.33
2023-02-23T09:24:14.013Z,17.63
2023-02-23T09:26:43.523Z,14.48
2023-02-23T09:29:11.532Z,16.60
2023-02-23T09:31:39.085Z,16.90
2023-02-23T09:34:05.743Z,17.45
2023-02-23T09:36:32.379Z,13.15
2023-02-23T09:38:58.930Z,12.75
2023-02-23T09:41:25.377Z,14.43
2023-02-23T09:44:02.304Z,16.98
2023-02-23T09:46:40.420Z,16.75
2023-02-23T09:49:14.780Z,12.88
2023-02-23T09:51:48.411Z,17.02
2023-02-23T09:54:18.035Z,15.88
2023-02-23T09:56:47.733Z,17.00
2023-02-23T09:59:20.270Z,12.73
2023-02-23T10:01:49.827Z,17.38
2023-02-23T10:04:20.509Z,17.05
2023-02-23T10:07:07.096Z,17.05
2023-02-23T10:09:44.425Z,16.73
2023-02-23T10:12:25.483Z,15.50
2023-02-23T10:15:23.906Z,16.38
2023-02-23T10:18:46.422Z,13.85
2023-02-23T10:21:22.489Z,17.02
2023-02-23T10:23:56.641Z,16.30
2023-02-23T10:26:27.967Z,16.83
2023-02-23T10:28:58.202Z,19.25
2023-02-23T10:31:31.344Z,13.23
2023-02-23T10:34:03.998Z,16.35
2023-02-23T10:36:38.101Z,16.92
2023-02-23T10:39:07.433Z,16.58
2023-02-23T10:41:37.016Z,14.43
2023-02-23T10:44:16.474Z,13.93
2023-02-23T10:46:46.105Z,12.52
2023-02-23T10:49:22.620Z,15.00
2023-02-23T10:51:49.650Z,15.13
2023-02-23T10:54:38.817Z,14.27
2023-02-23T10:57:08.088Z,15.32
2023-02-23T10:59:35.090Z,11.45
2023-02-23T11:02:22.321Z,16.00
2023-02-23T11:04:57.501Z,15.63
2023-02-23T11:07:29.773Z,10.77
2023-02-23T11:09:58.059Z,14.48
2023-02-23T11:12:35.921Z,12.68
2023-02-23T11:15:39.349Z,15.30
2023-02-23T11:18:20.233Z,14.00
2023-02-23T11:20:48.506Z,13.88
2023-02-23T11:23:30.209Z,12.48
2023-02-23T11:26:07.519Z,10.55
2023-02-23T11:28:37.931Z,14.13
2023-02-23T11:31:14.741Z,13.48
2023-02-23T11:33:44.442Z,13.43
2023-02-23T11:36:27.846Z,14.63
2023-02-23T11:39:14.225Z,14.65
2023-02-23T11:41:40.775Z,11.90
2023-02-23T11:44:07.375Z,14.38
2023-02-23T11:46:38.308Z,13.75
2023-02-23T11:49:10.239Z,11.85
2023-02-23T11:51:40.692Z,15.68
2023-02-23T11:54:19.665Z,15.30
2023-02-23T11:56:55.140Z,14.82
2023-02-23T11:59:29.913Z,14.55
2023-02-23T12:02:04.899Z,12.73
2023-02-23T12:04:37.224Z,14.13
2023-02-23T12:07:26.630Z,9.70
2023-02-23T12:10:04.076Z,20.63
2023-02-23T12:12:40.109Z,18.77
2023-02-23T12:15:14.836Z,12.63
2023-02-23T12:17:51.154Z,11.70
2023-02-23T12:20:23.644Z,14.98
2023-02-23T12:22:59.574Z,16.15
2023-02-23T12:25:42.846Z,14.73
2023-02-23T12:28:20.291Z,13.65
2023-02-23T12:31:04.650Z,12.23
2023-02-23T12:33:47.136Z,14.45
2023-02-23T12:36:30.081Z,14.85
2023-02-23T12:39:04.777Z,14.60
2023-02-23T12:41:38.912Z,14.60
2023-02-23T12:44:37.712Z,10.00
2023-02-23T12:47:32.043Z,15.02
2023-02-23T12:50:07.442Z,11.82
2023-02-23T12:52:39.542Z,9.88
2023-02-23T12:55:11.652Z,15.32
2023-02-23T12:57:48.500Z,15.10
2023-02-23T13:00:39.624Z,9.75
2023-02-23T13:03:40.264Z,14.95
2023-02-23T13:06:25.536Z,15.52
2023-02-23T13:09:02.633Z,10.63
2023-02-23T13:11:54.001Z,10.98
2023-02-23T13:14:33.019Z,9.88
2023-02-23T13:17:32.052Z,14.15
2023-02-23T13:20:03.610Z,12.73
2023-02-23T13:22:40.692Z,14.35
2023-02-23T13:25:24.706Z,14.93
2023-02-23T13:27:55.526Z,12.23
2023-02-23T13:30:22.707Z,11.65
2023-02-23T13:32:49.821Z,14.55
2023-02-23T13:35:20.503Z,14.23
2023-02-23T13:38:19.764Z,15.52
2023-02-23T13:40:55.748Z,10.20
2023-02-23T13:44:01.558Z,12.75
2023-02-23T13:46:54.021Z,12.48
2023-02-23T13:49:36.610Z,14.38
2023-02-23T13:52:16.775Z,15.55
2023-02-23T13:54:57.470Z,15.20
2023-02-23T13:57:24.892Z,14.90
2023-02-23T13:59:52.456Z,15.80
2023-02-23T14:02:39.232Z,15.20
2023-02-23T14:05:27.889Z,14.27
2023-02-23T14:08:07.800Z,15.10
2023-02-23T14:10:41.190Z,13.95
2023-02-23T14:13:13.431Z,14.90
2023-02-23T14:15:53.617Z,15.07
2023-02-23T14:18:21.060Z,14.00
2023-02-23T14:21:05.409Z,10.65
2023-02-23T14:23:49.743Z,12.98
2023-02-23T14:26:28.403Z,12.50
2023-02-23T14:29:19.177Z,13.07
2023-02-23T14:32:00.839Z,12.40
2023-02-23T14:34:49.734Z,12.00
2023-02-23T14:37:39.940Z,12.88
2023-02-23T14:40:24.900Z,13.93
2023-02-23T14:42:57.111Z,6.63
2023-02-23T14:45:37.427Z,13.07
2023-02-23T14:48:13.532Z,11.02
2023-02-23T14:53:18.610Z,12.73
2023-02-23T14:55:45.723Z,8.98
2023-02-23T14:58:30.495Z,12.35
2023-02-23T15:00:57.121Z,12.27
2023-02-23T15:03:23.637Z,13.13
2023-02-23T15:05:58.535Z,13.02
2023-02-23T15:08:28.101Z,13.88
2023-02-23T15:11:04.535Z,10.88
2023-02-23T15:13:34.170Z,13.52
2023-02-23T15:16:16.137Z,10.70
2023-02-23T15:18:44.547Z,11.70
2023-02-23T15:21:13.969Z,7.05
2023-02-23T15:23:40.626Z,9.50
2023-02-23T15:26:32.096Z,15.95
2023-02-23T15:29:10.715Z,12.63
2023-02-23T15:31:41.213Z,9.73
2023-02-23T15:34:11.201Z,12.73
2023-02-23T15:36:41.389Z,10.70
2023-02-23T15:39:13.541Z,13.00
2023-02-23T15:41:42.690Z,9.25
2023-02-23T15:44:13.802Z,10.32
2023-02-23T15:46:42.584Z,7.32
2023-02-23T15:49:13.450Z,10.52
2023-02-23T15:51:48.835Z,12.00
2023-02-23T15:54:29.878Z,9.70
2023-02-23T15:57:02.235Z,12.60
2023-02-23T15:59:34.774Z,13.35
2023-02-23T16:02:03.121Z,13.95
2023-02-23T16:04:33.888Z,12.40
2023-02-23T16:07:28.332Z,13.90
2023-02-23T16:10:26.909Z,15.18
2023-02-23T16:12:54.778Z,13.35
2023-02-23T16:15:25.901Z,16.95
2023-02-23T16:17:58.368Z,12.75
2023-02-23T16:21:04.359Z,13.13
2023-02-23T16:23:35.618Z,8.57
2023-02-23T16:26:12.207Z,16.65
2023-02-23T16:28:44.246Z,16.70
2023-02-23T16:31:13.477Z,18.35
2023-02-23T16:33:54.552Z,18.42
2023-02-23T16:36:24.796Z,17.48
2023-02-23T16:39:00.562Z,17.58
2023-02-23T16:41:31.237Z,16.63
2023-02-23T16:44:03.598Z,17.27
2023-02-23T16:46:32.979Z,16.48
2023-02-23T16:49:10.334Z,15.63
2023-02-23T16:51:36.975Z,16.23
2023-02-23T16:54:04.138Z,12.45
2023-02-23T16:56:31.305Z,12.35
2023-02-23T16:59:01.679Z,16.38
2023-02-23T17:01:28.210Z,17.65
2023-02-23T17:03:55.007Z,12.30
2023-02-23T17:06:22.748Z,16.80
2023-02-23T17:08:57.478Z,11.45
2023-02-23T17:11:25.334Z,17.92
2023-02-23T17:13:51.866Z,11.20
2023-02-23T17:16:18.943Z,16.40
2023-02-23T17:18:45.774Z,13.05
2023-02-23T17:21:14.439Z,14.05
2023-02-23T17:23:53.609Z,19.20
2023-02-23T17:26:23.628Z,13.82
2023-02-23T17:28:50.996Z,19.48
2023-02-23T17:31:19.881Z,20.27
2023-02-23T17:33:47.445Z,22.70
2023-02-23T17:36:17.352Z,23.15
2023-02-23T17:38:44.930Z,19.30
2023-02-23T17:41:17.524Z,21.90
2023-02-23T17:43:44.282Z,16.80
2023-02-23T17:46:12.445Z,17.55
2023-02-23T17:48:40.865Z,22.02
2023-02-23T17:51:12.760Z,19.02
2023-02-23T17:53:40.207Z,20.88
2023-02-23T17:56:07.090Z,13.55
2023-02-23T17:58:33.720Z,22.92
2023-02-23T18:01:02.443Z,22.83
2023-02-23T18:03:32.079Z,21.83
2023-02-23T18:06:03.211Z,18.17
2023-02-23T18:08:30.112Z,12.35
2023-02-23T18:10:57.788Z,15.15
2023-02-23T18:13:25.952Z,24.55
2023-02-23T18:15:55.156Z,13.75
2023-02-23T18:18:24.200Z,25.48
2023-02-23T18:21:00.807Z,11.88
2023-02-23T18:23:32.761Z,13.73
2023-02-23T18:26:08.314Z,14.98
2023-02-23T18:28:35.693Z,25.70
2023-02-23T18:31:02.729Z,20.45
2023-02-23T18:33:29.532Z,25.67
2023-02-23T18:35:56.235Z,25.42
2023-02-23T18:38:23.064Z,26.70
2023-02-23T18:40:49.589Z,25.42
2023-02-23T18:43:16.214Z,27.25
2023-02-23T18:45:43.493Z,24.60
2023-02-23T18:48:13.492Z,26.40
2023-02-23T18:50:41.479Z,22.27
2023-02-23T18:53:11.093Z,21.08
2023-02-23T18:55:38.392Z,20.08
2023-02-23T18:58:05.885Z,12.15
2023-02-23T19:00:40.352Z,22.73
2023-02-23T19:03:07.589Z,25.58
2023-02-23T19:05:36.523Z,25.75
2023-02-23T19:08:04.309Z,26.77
2023-02-23T19:10:30.997Z,26.42
2023-02-23T19:12:57.701Z,26.40
2023-02-23T19:15:24.275Z,27.90
2023-02-23T19:17:50.926Z,27.25
2023-02-23T19:20:17.985Z,28.13
2023-02-23T19:22:45.738Z,25.88
2023-02-23T19:25:14.820Z,25.92
2023-02-23T19:27:43.060Z,26.95
2023-02-23T19:30:11.081Z,27.35
2023-02-23T19:32:40.028Z,26.38
2023-02-23T19:35:10.583Z,30.33
2023-02-23T19:37:40.705Z,28.38
2023-02-23T19:40:08.037Z,30.23
2023-02-23T19:42:35.306Z,30.45
2023-02-23T19:45:01.959Z,29.67
2023-02-23T19:47:28.483Z,31.05
2023-02-23T19:49:56.159Z,30.58
2023-02-23T19:52:24.792Z,34.05
2023-02-23T19:54:51.356Z,31.77
2023-02-23T19:57:17.895Z,30.92
2023-02-23T19:59:44.437Z,34.83
2023-02-23T20:02:11.439Z,48.13
2023-02-23T20:04:38.282Z,34.10
2023-02-23T20:07:04.849Z,37.60
2023-02-23T20:09:31.368Z,35.45
2023-02-23T20:11:57.889Z,31.67
2023-02-23T20:14:25.077Z,32.55
2023-02-23T20:16:51.616Z,31.52
2023-02-23T20:19:19.728Z,30.13
2023-02-23T20:21:46.340Z,32.92
2023-02-23T20:24:13.274Z,28.77
2023-02-23T20:26:39.880Z,28.80
2023-02-23T20:29:10.849Z,27.63
2023-02-23T20:31:41.791Z,28.90
2023-02-23T20:34:11.297Z,29.02
2023-02-23T20:36:38.049Z,27.65
2023-02-23T20:39:05.014Z,27.40
2023-02-23T20:41:31.752Z,28.48
2023-02-23T20:44:00.857Z,26.25
2023-02-23T20:46:31.722Z,24.67
2023-02-23T20:48:59.594Z,23.17
2023-02-23T20:51:26.660Z,23.40
2023-02-23T20:53:53.304Z,23.67
2023-02-23T20:56:23.550Z,22.05
2023-02-23T20:58:54.517Z,23.27
2023-02-23T21:01:27.255Z,22.35
2023-02-23T21:03:59.734Z,22.00
2023-02-23T21:06:28.231Z,22.38
2023-02-23T21:09:02.915Z,22.80
2023-02-23T21:11:32.131Z,22.42
2023-02-23T21:13:59.858Z,22.00
2023-02-23T21:16:26.806Z,22.90
2023-02-23T21:19:04.315Z,21.38
2023-02-23T21:21:52.530Z,21.35
2023-02-23T21:24:19.479Z,21.88
2023-02-23T21:26:46.104Z,22.58
2023-02-23T21:29:14.932Z,22.70
2023-02-23T21:31:43.489Z,22.33
2023-02-23T21:34:11.216Z,20.30
2023-02-23T21:36:37.997Z,21.80
2023-02-23T21:39:06.217Z,22.98
2023-02-23T21:41:33.798Z,21.10
2023-02-23T21:44:01.765Z,21.35
2023-02-23T21:46:28.717Z,21.95
2023-02-23T21:48:55.278Z,22.60
2023-02-23T21:51:22.167Z,22.42
2023-02-23T21:53:48.984Z,21.75
2023-02-23T21:56:21.282Z,22.33
2023-02-23T21:58:53.334Z,22.30
2023-02-23T22:01:34.750Z,21.17
2023-02-23T22:04:01.839Z,20.73
2023-02-23T22:06:38.972Z,21.00
2023-02-23T22:09:07.257Z,21.40
2023-02-23T22:11:35.791Z,20.77
2023-02-23T22:14:05.173Z,21.05
2023-02-23T22:16:35.858Z,20.80
2023-02-23T22:19:04.362Z,22.83
2023-02-23T22:21:41.941Z,24.27
2023-02-23T22:24:10.535Z,23.45
2023-02-23T22:26:39.520Z,21.42
2023-02-23T22:29:07.478Z,22.42
2023-02-23T22:31:34.320Z,22.60
2023-02-23T22:34:01.070Z,22.20
2023-02-23T22:36:27.834Z,22.63
2023-02-23T22:38:58.419Z,22.23
2023-02-23T22:41:25.052Z,23.02
2023-02-23T22:43:51.561Z,21.15
2023-02-23T22:46:18.091Z,20.30
2023-02-23T22:48:45.159Z,21.33
2023-02-23T22:51:13.510Z,20.85
2023-02-23T22:53:40.294Z,22.60
2023-02-23T22:56:07.071Z,22.55
2023-02-23T22:58:33.609Z,22.60
2023-02-23T23:01:06.479Z,23.15
2023-02-23T23:03:39.732Z,22.55
2023-02-23T23:06:11.480Z,20.38
2023-02-23T23:08:43.758Z,21.45
2023-02-23T23:11:13.043Z,22.00
2023-02-23T23:13:44.982Z,22.05
2023-02-23T23:16:28.880Z,23.50
2023-02-23T23:19:02.763Z,21.63
2023-02-23T23:21:31.970Z,22.48
2023-02-23T23:24:01.221Z,23.00
2023-02-23T23:26:28.624Z,22.10
2023-02-23T23:28:58.763Z,20.35
2023-02-23T23:31:29.226Z,23.25
2023-02-23T23:34:05.177Z,21.15
2023-02-23T23:36:34.735Z,20.15
2023-02-23T23:39:02.563Z,21.73
2023-02-23T23:41:35.442Z,22.25
2023-02-23T23:44:05.349Z,21.05
2023-02-23T23:46:35.546Z,21.80
2023-02-23T23:49:06.108Z,22.00
2023-02-23T23:51:39.105Z,21.90
2023-02-23T23:54:09.756Z,22.70
2023-02-23T23:56:39.762Z,22.70
2023-02-23T23:59:12.943Z,20.83
